Gaz Palmyra — 3FCO4 — position and weather

sailwx.info

Track history (hours):
 
Tides and Currents Weather Stations Pressure Air Temp Water Temp Dewpoint Dewpoint Depression Visibility Wind Speed Wind Dir Waves Ship Positions

Gaz Palmyra

Last reported at 2014-Nov-20 01:30 UTC. Time now 2014-Nov-27 18:22 UTC.
Position N 36°33' E 000°37'.

Length 137 m; draft 8.1 m.

Type: Ship (hazmat cat C). MMSI: 353247000.

Date/timePositionNaut miles runAvg speedWind from/ knotsBaromVisibWave heightAir tempDewpointWater temp
2014-Nov-20 01:30N 36°33' E 000°37'7 4.9
2014-Nov-20 00:06N 36°35' E 000°45'1 0.8
2014-Nov-19 22:33N 36°36' E 000°44'1 0.8
2014-Nov-19 21:33N 36°37' E 000°45'1 0.9
2014-Nov-19 20:33N 36°37' E 000°45'9 8.7
2014-Nov-19 19:32N 36°42' E 000°54'1211.4
2014-Nov-19 18:31N 36°45' E 001°08'1111.4
2014-Nov-19 17:33N 36°46' E 001°22'1211.8
2014-Nov-19 16:33N 36°48' E 001°37'1412.4
2014-Nov-19 15:26N 36°49' E 001°54'1413.0
2014-Nov-19 14:20N 36°50' E 002°12'1013.1
2014-Nov-19 13:33N 36°51' E 002°25'1312.5
2014-Nov-19 12:33N 36°51' E 002°40'1211.9
2014-Nov-19 11:33N 36°53' E 002°55'11 9.6
2014-Nov-19 10:25N 36°46' E 003°05'  
Track history (hours):
 
Tides and Currents Weather Stations Pressure Air Temp Water Temp Dewpoint Dewpoint Depression Visibility Wind Speed Wind Dir Waves Ship Positions

Gaz Palmyra

Last reported at 2014-Nov-20 01:30 UTC. Time now 2014-Nov-27 18:22 UTC.
Position N 36°33' E 000°37'.

Length 137 m; draft 8.1 m.

Type: Ship (hazmat cat C). MMSI: 353247000.

Date/timePositionNaut miles runAvg speedWind from/ knotsBaromVisibWave heightAir tempDewpointWater temp
2014-Nov-20 01:30N 36°33' E 000°37'7 4.9
2014-Nov-20 00:06N 36°35' E 000°45'1 0.8
2014-Nov-19 22:33N 36°36' E 000°44'1 0.8
2014-Nov-19 21:33N 36°37' E 000°45'1 0.9
2014-Nov-19 20:33N 36°37' E 000°45'9 8.7
2014-Nov-19 19:32N 36°42' E 000°54'1211.4
2014-Nov-19 18:31N 36°45' E 001°08'1111.4
2014-Nov-19 17:33N 36°46' E 001°22'1211.8
2014-Nov-19 16:33N 36°48' E 001°37'1412.4
2014-Nov-19 15:26N 36°49' E 001°54'1413.0
2014-Nov-19 14:20N 36°50' E 002°12'1013.1
2014-Nov-19 13:33N 36°51' E 002°25'1312.5
2014-Nov-19 12:33N 36°51' E 002°40'1211.9
2014-Nov-19 11:33N 36°53' E 002°55'11 9.6
2014-Nov-19 10:25N 36°46' E 003°05'  

Dump ship's entire track history